Time;durP1;ratioP1;P1;durP2;ratioP2;P2;SDS_P1;SDS_P2;PMS_P1;PMS_P2;Temp;Humidity;BMP_temperature;BMP_pressure;BME280_temperature;BME280_humidity;BME280_pressure;Samples;Min_cycle;Max_cycle;Signal;HPM_P1;HPM_P2
2022/06/05 00:00:36;;;;;;;25.40;16.50;;;;;;;;;;5055738;28;20098;-25
2022/06/05 00:03:02;;;;;;;23.63;15.40;;;;;;;;;;5056734;28;20045;-26
2022/06/05 00:05:32;;;;;;;23.85;16.48;;;;;;;;;;5056862;28;20500;-26
2022/06/05 00:08:04;;;;;;;23.35;15.27;;;;;;;;;;5056713;28;20056;-25
2022/06/05 00:10:50;;;;;;;19.98;15.23;;;;;;;;;;5071164;28;20397;-26
2022/06/05 00:13:19;;;;;;;25.60;15.32;;;;;;;;;;5051835;28;20049;-26
2022/06/05 00:15:46;;;;;;;29.15;16.20;;;;;;;;;;5056723;28;20138;-25
2022/06/05 00:18:12;;;;;;;28.42;16.58;;;;;;;;;;5074076;28;20075;-25
2022/06/05 00:20:41;;;;;;;22.85;16.00;;;;;;;;;;5068177;28;20051;-25
2022/06/05 00:23:07;;;;;;;28.08;17.08;;;;;;;;;;5056389;28;20556;-26
2022/06/05 00:25:56;;;;;;;28.98;16.75;;;;;;;;;;5055415;28;20091;-26
2022/06/05 00:28:34;;;;;;;25.52;16.95;;;;;;;;;;5050139;28;20056;-25
2022/06/05 00:31:13;;;;;;;23.83;15.63;;;;;;;;;;5056224;28;20107;-25
2022/06/05 00:33:43;;;;;;;30.65;17.20;;;;;;;;;;5055589;28;20037;-25
2022/06/05 00:36:28;;;;;;;27.10;15.98;;;;;;;;;;5058867;28;20479;-26
2022/06/05 00:38:59;;;;;;;29.88;15.93;;;;;;;;;;5056304;28;20052;-25
2022/06/05 00:41:43;;;;;;;23.88;16.63;;;;;;;;;;5055672;28;20530;-25
2022/06/05 00:44:12;;;;;;;25.83;15.73;;;;;;;;;;5054316;28;20487;-25
2022/06/05 00:46:38;;;;;;;24.27;16.70;;;;;;;;;;5055303;28;20052;-25
2022/06/05 00:49:05;;;;;;;32.28;17.50;;;;;;;;;;5055611;28;20128;-26
2022/06/05 00:51:31;;;;;;;23.98;15.38;;;;;;;;;;5056401;28;20131;-25
2022/06/05 00:53:57;;;;;;;25.98;15.75;;;;;;;;;;5055115;28;20045;-26
2022/06/05 00:56:23;;;;;;;23.65;14.82;;;;;;;;;;5054822;28;20048;-25
2022/06/05 00:58:49;;;;;;;25.33;15.95;;;;;;;;;;5056633;28;20052;-25
2022/06/05 01:01:15;;;;;;;22.70;15.65;;;;;;;;;;5054948;28;20483;-25
2022/06/05 01:03:41;;;;;;;24.38;14.75;;;;;;;;;;5054909;28;20052;-25
2022/06/05 01:06:07;;;;;;;22.98;14.98;;;;;;;;;;5055137;28;20048;-25
2022/06/05 01:08:33;;;;;;;20.98;14.90;;;;;;;;;;5054528;28;20483;-25
2022/06/05 01:10:59;;;;;;;25.35;15.45;;;;;;;;;;5058901;28;20036;-25
2022/06/05 01:13:41;;;;;;;25.73;15.25;;;;;;;;;;5055137;28;20580;-25
2022/06/05 01:16:13;;;;;;;26.48;16.63;;;;;;;;;;5066634;28;20053;-26
2022/06/05 01:18:51;;;;;;;23.85;16.23;;;;;;;;;;5046509;28;20167;-27
2022/06/05 01:21:37;;;;;;;21.85;16.20;;;;;;;;;;5073895;28;20080;-26
2022/06/05 01:24:14;;;;;;;26.77;16.02;;;;;;;;;;5075214;28;20091;-26
2022/06/05 01:26:44;;;;;;;27.65;15.63;;;;;;;;;;5057507;28;20059;-26
2022/06/05 01:29:25;;;;;;;25.60;16.70;;;;;;;;;;5053614;28;20131;-26
2022/06/05 01:31:56;;;;;;;29.90;17.33;;;;;;;;;;5067923;28;20045;-25
2022/06/05 01:34:36;;;;;;;29.80;17.30;;;;;;;;;;5055487;28;20041;-25
2022/06/05 01:37:11;;;;;;;25.45;16.50;;;;;;;;;;5069025;28;20051;-25
2022/06/05 01:39:47;;;;;;;24.38;16.52;;;;;;;;;;5070774;28;20110;-25
2022/06/05 01:42:15;;;;;;;25.55;15.50;;;;;;;;;;5037223;28;20049;-26
2022/06/05 01:44:46;;;;;;;24.27;15.98;;;;;;;;;;5055131;28;20067;-25
2022/06/05 01:47:16;;;;;;;24.98;15.30;;;;;;;;;;5069960;28;20040;-26
2022/06/05 01:50:03;;;;;;;19.83;15.13;;;;;;;;;;5054442;28;20049;-25
2022/06/05 01:52:37;;;;;;;25.85;16.30;;;;;;;;;;5054709;28;20176;-26
2022/06/05 01:55:23;;;;;;;26.88;15.73;;;;;;;;;;5054486;28;20045;-25
2022/06/05 01:57:51;;;;;;;29.73;16.15;;;;;;;;;;5067126;28;20128;-26
2022/06/05 02:00:19;;;;;;;30.35;17.05;;;;;;;;;;5054299;28;20403;-26
2022/06/05 02:02:49;;;;;;;25.45;15.60;;;;;;;;;;5059245;28;20045;-26
2022/06/05 02:05:17;;;;;;;26.88;17.45;;;;;;;;;;5057656;28;20045;-26
2022/06/05 02:07:48;;;;;;;27.27;17.17;;;;;;;;;;5053518;28;20561;-25
2022/06/05 02:10:17;;;;;;;29.67;16.98;;;;;;;;;;5053480;28;20102;-26
2022/06/05 02:12:43;;;;;;;36.70;17.45;;;;;;;;;;5045297;28;20128;-26
2022/06/05 02:15:10;;;;;;;31.77;17.85;;;;;;;;;;5053494;28;20057;-26
2022/06/05 02:17:36;;;;;;;28.08;16.48;;;;;;;;;;5074044;28;20044;-26
2022/06/05 02:20:05;;;;;;;31.55;17.00;;;;;;;;;;5057966;28;20045;-25
2022/06/05 02:22:34;;;;;;;24.35;15.85;;;;;;;;;;5056024;28;20051;-25
2022/06/05 02:25:00;;;;;;;31.77;15.63;;;;;;;;;;5068380;28;20044;-25
2022/06/05 02:27:27;;;;;;;30.77;17.98;;;;;;;;;;5052983;28;20053;-26
2022/06/05 02:29:53;;;;;;;28.13;17.50;;;;;;;;;;5053995;28;20049;-26
2022/06/05 02:32:28;;;;;;;27.60;17.95;;;;;;;;;;5053764;28;20124;-26
2022/06/05 02:34:59;;;;;;;29.42;17.73;;;;;;;;;;5067282;28;20060;-26
2022/06/05 02:37:28;;;;;;;33.83;17.15;;;;;;;;;;5054868;28;20041;-26
2022/06/05 02:40:14;;;;;;;34.55;17.48;;;;;;;;;;5054608;28;20497;-26
2022/06/05 02:42:47;;;;;;;31.60;16.67;;;;;;;;;;5054320;28;20397;-26
2022/06/05 02:45:23;;;;;;;31.13;16.77;;;;;;;;;;5054004;28;20076;-26
2022/06/05 02:47:59;;;;;;;28.75;17.52;;;;;;;;;;5052822;28;20055;-26
2022/06/05 02:50:36;;;;;;;29.63;16.63;;;;;;;;;;5053258;28;20076;-26
2022/06/05 02:53:04;;;;;;;28.45;15.90;;;;;;;;;;5052286;28;20037;-25
2022/06/05 02:55:30;;;;;;;24.27;15.50;;;;;;;;;;5052232;28;20076;-25
2022/06/05 02:57:56;;;;;;;25.67;16.63;;;;;;;;;;5053648;28;20045;-25
2022/06/05 03:00:24;;;;;;;30.85;16.92;;;;;;;;;;5052353;28;20076;-26
2022/06/05 03:05:36;;;;;;;34.15;16.70;;;;;;;;;;5055079;28;20118;-26
2022/06/05 03:08:03;;;;;;;28.15;16.45;;;;;;;;;;5056771;28;20408;-26
2022/06/05 03:10:29;;;;;;;27.27;15.82;;;;;;;;;;5052776;28;20102;-27
2022/06/05 03:12:55;;;;;;;26.27;15.90;;;;;;;;;;5055440;28;20128;-26
2022/06/05 03:15:21;;;;;;;30.85;17.02;;;;;;;;;;5054024;28;20053;-26
2022/06/05 03:17:47;;;;;;;24.30;15.40;;;;;;;;;;5058607;28;20099;-26
2022/06/05 03:20:14;;;;;;;26.83;15.60;;;;;;;;;;5051934;28;20095;-26
2022/06/05 03:22:41;;;;;;;26.17;16.85;;;;;;;;;;5053214;28;20041;-25
2022/06/05 03:25:07;;;;;;;25.98;15.63;;;;;;;;;;5053933;28;20052;-26
2022/06/05 03:27:33;;;;;;;32.40;16.15;;;;;;;;;;5052877;28;20051;-26
2022/06/05 03:30:00;;;;;;;27.73;16.52;;;;;;;;;;5051787;28;20052;-26
2022/06/05 03:32:26;;;;;;;30.23;17.27;;;;;;;;;;5052997;28;20394;-25
2022/06/05 03:34:53;;;;;;;33.92;17.08;;;;;;;;;;5053213;28;20049;-26
2022/06/05 03:37:19;;;;;;;28.65;17.45;;;;;;;;;;5062247;28;20469;-26
2022/06/05 03:39:46;;;;;;;34.45;17.23;;;;;;;;;;5062215;28;20041;-26
2022/06/05 03:42:12;;;;;;;29.95;16.27;;;;;;;;;;5035326;28;20179;-26
2022/06/05 03:44:40;;;;;;;36.22;18.38;;;;;;;;;;5054000;28;20041;-26
2022/06/05 03:47:06;;;;;;;25.27;17.02;;;;;;;;;;5057913;28;20056;-26
2022/06/05 03:49:33;;;;;;;31.23;16.70;;;;;;;;;;5053155;28;20061;-25
2022/06/05 03:51:59;;;;;;;28.65;16.25;;;;;;;;;;5052485;28;20045;-26
2022/06/05 03:54:25;;;;;;;29.48;16.67;;;;;;;;;;5053836;28;20095;-26
2022/06/05 03:56:51;;;;;;;25.58;15.57;;;;;;;;;;5055109;28;20052;-26
2022/06/05 03:59:17;;;;;;;32.78;17.35;;;;;;;;;;5068566;28;20154;-26
2022/06/05 04:01:43;;;;;;;35.75;18.55;;;;;;;;;;5051538;28;20506;-26
2022/06/05 04:04:10;;;;;;;28.23;16.58;;;;;;;;;;5054823;28;20067;-26
2022/06/05 04:06:36;;;;;;;31.02;16.92;;;;;;;;;;5054522;28;20482;-25
2022/06/05 04:09:04;;;;;;;26.55;17.38;;;;;;;;;;5052424;28;20084;-25
2022/06/05 04:11:31;;;;;;;32.95;17.80;;;;;;;;;;5055927;28;20056;-26
2022/06/05 04:13:57;;;;;;;33.85;18.35;;;;;;;;;;5054613;28;20110;-26
2022/06/05 04:16:24;;;;;;;30.08;17.40;;;;;;;;;;5058412;28;20056;-26
2022/06/05 04:18:51;;;;;;;29.27;19.10;;;;;;;;;;5056668;28;20052;-26
2022/06/05 04:21:19;;;;;;;28.92;17.33;;;;;;;;;;5055561;28;20109;-26
2022/06/05 04:23:45;;;;;;;30.10;18.33;;;;;;;;;;5056908;28;20037;-26
2022/06/05 04:26:13;;;;;;;27.77;17.48;;;;;;;;;;5056412;28;20394;-26
2022/06/05 04:28:40;;;;;;;25.65;17.67;;;;;;;;;;5055481;28;20056;-25
2022/06/05 04:31:15;;;;;;;26.33;16.27;;;;;;;;;;5054288;28;20072;-26
2022/06/05 04:33:41;;;;;;;27.75;15.63;;;;;;;;;;5054957;28;20037;-26
2022/06/05 04:36:07;;;;;;;26.63;16.48;;;;;;;;;;5068280;28;20135;-26
2022/06/05 04:38:33;;;;;;;26.52;16.45;;;;;;;;;;5061080;28;20044;-26
2022/06/05 04:40:59;;;;;;;25.88;15.38;;;;;;;;;;5066350;28;20045;-26
2022/06/05 04:43:25;;;;;;;28.48;15.35;;;;;;;;;;5056832;28;20040;-26
2022/06/05 04:45:51;;;;;;;27.80;15.48;;;;;;;;;;5066394;28;20414;-26
2022/06/05 04:48:17;;;;;;;28.90;16.42;;;;;;;;;;5060453;28;20428;-26
2022/06/05 04:50:44;;;;;;;20.98;14.90;;;;;;;;;;5056797;28;20041;-26
2022/06/05 04:53:10;;;;;;;22.38;14.45;;;;;;;;;;5057955;28;20049;-26
2022/06/05 04:55:36;;;;;;;26.08;15.05;;;;;;;;;;5068876;28;20052;-26
2022/06/05 04:58:02;;;;;;;22.23;13.65;;;;;;;;;;5074168;28;20090;-26
2022/06/05 05:00:28;;;;;;;20.95;13.90;;;;;;;;;;5060657;28;20037;-26
2022/06/05 05:02:55;;;;;;;19.10;14.43;;;;;;;;;;5054800;28;20124;-26
2022/06/05 05:05:21;;;;;;;26.27;15.27;;;;;;;;;;5059194;28;20402;-26
2022/06/05 05:07:47;;;;;;;19.65;13.10;;;;;;;;;;5058061;28;20052;-26
2022/06/05 05:10:13;;;;;;;24.48;14.65;;;;;;;;;;5058929;28;20076;-26
2022/06/05 05:12:40;;;;;;;22.55;14.57;;;;;;;;;;5065466;28;20040;-26
2022/06/05 05:15:09;;;;;;;24.77;14.27;;;;;;;;;;5067818;28;20084;-26
2022/06/05 05:17:35;;;;;;;19.70;13.15;;;;;;;;;;5069842;28;20101;-26
2022/06/05 05:20:01;;;;;;;21.48;13.55;;;;;;;;;;5067454;28;20371;-26
2022/06/05 05:22:27;;;;;;;19.88;13.80;;;;;;;;;;5059310;28;20076;-26
2022/06/05 05:24:53;;;;;;;19.10;13.65;;;;;;;;;;5059956;28;20044;-26
2022/06/05 05:27:20;;;;;;;19.65;13.85;;;;;;;;;;5067899;28;20044;-26
2022/06/05 05:29:46;;;;;;;20.73;13.75;;;;;;;;;;5063610;28;20077;-26
2022/06/05 05:32:12;;;;;;;20.58;12.85;;;;;;;;;;5058900;28;20052;-26
2022/06/05 05:34:38;;;;;;;16.10;11.55;;;;;;;;;;5060255;28;20076;-26
2022/06/05 05:37:05;;;;;;;23.98;12.75;;;;;;;;;;5057221;28;20056;-27
2022/06/05 05:42:16;;;;;;;18.83;12.02;;;;;;;;;;5064207;28;20052;-26
2022/06/05 05:44:43;;;;;;;14.05;10.75;;;;;;;;;;5064874;28;20045;-26
2022/06/05 05:47:11;;;;;;;18.20;10.85;;;;;;;;;;5053755;28;20044;-27
2022/06/05 05:49:38;;;;;;;11.30;10.10;;;;;;;;;;5065133;28;20048;-27
2022/06/05 05:52:05;;;;;;;16.73;10.52;;;;;;;;;;5068356;28;20045;-26
2022/06/05 05:54:31;;;;;;;15.95;10.50;;;;;;;;;;5060085;28;20044;-26
2022/06/05 05:56:57;;;;;;;12.48;10.35;;;;;;;;;;5059412;28;20052;-26
2022/06/05 05:59:23;;;;;;;14.70;10.48;;;;;;;;;;5054800;28;20037;-28
2022/06/05 06:01:49;;;;;;;12.60;9.27;;;;;;;;;;5055845;28;20037;-25
2022/06/05 06:04:15;;;;;;;13.25;10.13;;;;;;;;;;5063309;28;20043;-26
2022/06/05 06:06:42;;;;;;;14.25;9.50;;;;;;;;;;5056208;28;20047;-26
2022/06/05 06:09:09;;;;;;;14.10;10.30;;;;;;;;;;5066606;28;20051;-26
2022/06/05 06:11:35;;;;;;;13.85;10.20;;;;;;;;;;5063470;28;20048;-26
2022/06/05 06:14:01;;;;;;;13.95;9.77;;;;;;;;;;5061463;28;20060;-26
2022/06/05 06:16:27;;;;;;;14.15;10.48;;;;;;;;;;5062898;28;20554;-26
2022/06/05 06:18:54;;;;;;;13.77;9.15;;;;;;;;;;5067271;28;20044;-26
2022/06/05 06:21:20;;;;;;;11.20;9.45;;;;;;;;;;5060670;28;20051;-26
2022/06/05 06:23:46;;;;;;;15.48;10.93;;;;;;;;;;5056050;28;20063;-26
2022/06/05 06:26:12;;;;;;;13.45;10.70;;;;;;;;;;5062223;28;20072;-26
2022/06/05 06:28:38;;;;;;;11.27;9.75;;;;;;;;;;5054377;28;20041;-26
2022/06/05 06:31:06;;;;;;;15.20;10.23;;;;;;;;;;5052078;28;20056;-26
2022/06/05 06:33:32;;;;;;;14.73;10.48;;;;;;;;;;5056577;28;20072;-26
2022/06/05 06:36:02;;;;;;;13.98;10.70;;;;;;;;;;5064601;28;20415;-26
2022/06/05 06:38:29;;;;;;;13.75;10.75;;;;;;;;;;5067119;28;20041;-26
2022/06/05 06:41:02;;;;;;;12.60;9.05;;;;;;;;;;5062845;28;20048;-26
2022/06/05 06:43:28;;;;;;;14.05;9.65;;;;;;;;;;5060598;28;20045;-26
2022/06/05 06:45:55;;;;;;;12.18;9.35;;;;;;;;;;5065264;28;20056;-26
2022/06/05 06:48:21;;;;;;;12.88;9.50;;;;;;;;;;5074341;28;20048;-26
2022/06/05 06:50:47;;;;;;;12.48;9.15;;;;;;;;;;5056598;28;20055;-26
2022/06/05 06:53:13;;;;;;;10.30;8.63;;;;;;;;;;5073438;28;20090;-26
2022/06/05 06:55:39;;;;;;;14.80;10.20;;;;;;;;;;5074295;28;20128;-26
2022/06/05 06:58:05;;;;;;;12.23;9.98;;;;;;;;;;5073066;28;20052;-26
2022/06/05 07:00:32;;;;;;;11.80;9.00;;;;;;;;;;5073580;28;20494;-26
2022/06/05 07:02:58;;;;;;;10.77;9.35;;;;;;;;;;5037217;28;20037;-26
2022/06/05 07:05:24;;;;;;;16.15;10.07;;;;;;;;;;5053502;28;20049;-26
2022/06/05 07:07:50;;;;;;;12.55;10.63;;;;;;;;;;5053808;28;20394;-27
2022/06/05 07:10:16;;;;;;;13.63;8.38;;;;;;;;;;5053486;28;20049;-26
2022/06/05 07:12:42;;;;;;;13.43;9.45;;;;;;;;;;5053243;28;20049;-26
2022/06/05 07:15:09;;;;;;;10.75;8.75;;;;;;;;;;5053982;28;20053;-26
2022/06/05 07:17:35;;;;;;;9.98;8.20;;;;;;;;;;5053447;28;20052;-26
2022/06/05 07:20:01;;;;;;;12.43;9.40;;;;;;;;;;5052273;28;20081;-26
2022/06/05 07:22:27;;;;;;;12.88;8.90;;;;;;;;;;5053391;28;20049;-26
2022/06/05 07:24:53;;;;;;;10.52;8.23;;;;;;;;;;5053370;28;20047;-27
2022/06/05 07:27:19;;;;;;;9.70;8.27;;;;;;;;;;5053327;28;20049;-26
2022/06/05 07:29:45;;;;;;;11.18;8.57;;;;;;;;;;5053468;28;20045;-27
2022/06/05 07:32:13;;;;;;;10.98;8.60;;;;;;;;;;5053711;28;20478;-26
2022/06/05 07:34:40;;;;;;;9.85;8.27;;;;;;;;;;5052831;28;20045;-26
2022/06/05 07:37:06;;;;;;;9.23;7.80;;;;;;;;;;5053803;28;20053;-26
2022/06/05 07:39:32;;;;;;;9.45;7.70;;;;;;;;;;5052340;28;20056;-26
2022/06/05 07:41:58;;;;;;;12.52;7.60;;;;;;;;;;5053185;28;20045;-26
2022/06/05 07:44:25;;;;;;;9.15;7.85;;;;;;;;;;5053225;28;20049;-26
2022/06/05 07:46:51;;;;;;;9.10;7.80;;;;;;;;;;5063957;28;20045;-26
2022/06/05 07:49:18;;;;;;;8.52;7.72;;;;;;;;;;5062317;28;20056;-26
2022/06/05 07:54:34;;;;;;;8.73;6.25;;;;;;;;;;5060307;28;20047;-26
2022/06/05 07:57:08;;;;;;;7.85;6.03;;;;;;;;;;5077506;28;20406;-26
2022/06/05 07:59:38;;;;;;;9.52;6.68;;;;;;;;;;5076811;28;20087;-26
2022/06/05 08:02:06;;;;;;;8.52;6.47;;;;;;;;;;5077032;28;20051;-28
2022/06/05 08:04:33;;;;;;;8.73;6.40;;;;;;;;;;5062820;28;20102;-27
2022/06/05 08:07:00;;;;;;;7.80;6.20;;;;;;;;;;5076679;28;20045;-27
2022/06/05 08:09:27;;;;;;;10.40;7.20;;;;;;;;;;5073852;28;20123;-26
2022/06/05 08:11:53;;;;;;;9.85;7.03;;;;;;;;;;5076627;28;20049;-26
2022/06/05 08:14:19;;;;;;;7.40;6.63;;;;;;;;;;5076872;28;20052;-26
2022/06/05 08:16:46;;;;;;;10.48;6.97;;;;;;;;;;5075579;28;20065;-26
2022/06/05 08:19:13;;;;;;;7.10;6.18;;;;;;;;;;5074956;28;20049;-26
2022/06/05 08:21:40;;;;;;;7.28;6.50;;;;;;;;;;5057208;28;20505;-26
2022/06/05 08:24:06;;;;;;;7.28;6.20;;;;;;;;;;5056379;28;20045;-26
2022/06/05 08:26:33;;;;;;;7.80;6.80;;;;;;;;;;5056328;28;20041;-26
2022/06/05 08:28:59;;;;;;;6.82;6.13;;;;;;;;;;5056320;28;20080;-26
2022/06/05 08:31:27;;;;;;;7.95;6.93;;;;;;;;;;5055797;28;20541;-26
2022/06/05 08:33:53;;;;;;;12.88;7.65;;;;;;;;;;5058111;28;20051;-26
2022/06/05 08:36:19;;;;;;;9.73;7.38;;;;;;;;;;5072498;28;20104;-27
2022/06/05 08:41:30;;;;;;;7.75;6.97;;;;;;;;;;5061768;28;20098;-27
2022/06/05 08:44:00;;;;;;;11.82;6.95;;;;;;;;;;5061467;28;20048;-29
2022/06/05 08:46:29;;;;;;;9.38;6.10;;;;;;;;;;5074341;28;20457;-26
2022/06/05 08:49:03;;;;;;;7.95;6.35;;;;;;;;;;5075074;28;20055;-27
2022/06/05 08:51:29;;;;;;;8.68;6.65;;;;;;;;;;5076911;28;20044;-26
2022/06/05 08:53:55;;;;;;;7.45;6.75;;;;;;;;;;5075814;28;20036;-26
2022/06/05 08:56:31;;;;;;;8.85;7.25;;;;;;;;;;5069739;28;20094;-26
2022/06/05 08:59:03;;;;;;;7.45;6.72;;;;;;;;;;5069400;28;20120;-26
2022/06/05 09:01:29;;;;;;;10.47;7.70;;;;;;;;;;5062458;28;20048;-26
2022/06/05 09:03:59;;;;;;;8.05;6.60;;;;;;;;;;5055681;28;20045;-29
2022/06/05 09:06:46;;;;;;;9.90;6.60;;;;;;;;;;5068977;28;20048;-27
2022/06/05 09:09:18;;;;;;;8.77;6.68;;;;;;;;;;5073551;28;20131;-29
2022/06/05 09:12:03;;;;;;;8.23;5.95;;;;;;;;;;5066074;28;20398;-27
2022/06/05 09:14:44;;;;;;;9.23;6.43;;;;;;;;;;5054902;28;20475;-27
2022/06/05 09:17:12;;;;;;;8.30;5.97;;;;;;;;;;5061766;28;20056;-27
2022/06/05 09:19:39;;;;;;;7.45;5.07;;;;;;;;;;5061092;28;20498;-27
2022/06/05 09:22:05;;;;;;;6.65;6.05;;;;;;;;;;5058419;28;20049;-27
2022/06/05 09:24:50;;;;;;;7.80;6.40;;;;;;;;;;5073807;28;20148;-27
2022/06/05 09:27:23;;;;;;;6.13;5.50;;;;;;;;;;5075218;28;20048;-27
2022/06/05 09:29:49;;;;;;;6.72;5.75;;;;;;;;;;5075760;28;20128;-27
2022/06/05 09:32:39;;;;;;;7.00;5.65;;;;;;;;;;5057185;28;20048;-29
2022/06/05 09:35:11;;;;;;;8.65;6.45;;;;;;;;;;5050184;28;20080;-27
2022/06/05 09:37:45;;;;;;;7.95;5.82;;;;;;;;;;5068224;28;20489;-28
2022/06/05 09:40:30;;;;;;;9.88;5.72;;;;;;;;;;5067694;28;20434;-27
2022/06/05 09:42:56;;;;;;;8.20;6.00;;;;;;;;;;5036801;28;20037;-27
2022/06/05 09:45:41;;;;;;;6.65;5.55;;;;;;;;;;5068219;28;20040;-27
2022/06/05 09:48:10;;;;;;;7.40;5.03;;;;;;;;;;5073603;28;20391;-27
2022/06/05 09:50:36;;;;;;;6.45;5.55;;;;;;;;;;5074108;28;20486;-27
2022/06/05 09:53:02;;;;;;;5.90;5.35;;;;;;;;;;5055026;28;20402;-27
2022/06/05 09:55:51;;;;;;;6.68;5.00;;;;;;;;;;5053705;28;20048;-28
2022/06/05 09:58:31;;;;;;;7.10;5.15;;;;;;;;;;5035674;28;20091;-27
2022/06/05 10:01:01;;;;;;;6.90;5.32;;;;;;;;;;5054635;28;20198;-27
2022/06/05 10:03:32;;;;;;;5.75;5.15;;;;;;;;;;5054763;28;20541;-27
2022/06/05 10:06:17;;;;;;;6.57;5.35;;;;;;;;;;5066900;28;20084;-27
2022/06/05 10:09:10;;;;;;;5.28;4.78;;;;;;;;;;5075622;28;20437;-27
2022/06/05 10:11:51;;;;;;;5.72;4.95;;;;;;;;;;5064947;28;20145;-27
2022/06/05 10:14:35;;;;;;;6.05;5.20;;;;;;;;;;5074301;28;20068;-28
2022/06/05 10:17:04;;;;;;;6.70;5.20;;;;;;;;;;5070058;28;20497;-28
2022/06/05 10:19:39;;;;;;;5.68;5.00;;;;;;;;;;5062721;28;20395;-27
2022/06/05 10:22:09;;;;;;;5.65;4.55;;;;;;;;;;5054137;28;20056;-27
2022/06/05 10:24:36;;;;;;;5.78;5.13;;;;;;;;;;5054192;28;20049;-27
2022/06/05 10:27:02;;;;;;;5.32;4.80;;;;;;;;;;5064119;28;20049;-27
2022/06/05 10:29:34;;;;;;;5.50;5.00;;;;;;;;;;5066852;28;20043;-27
2022/06/05 10:32:17;;;;;;;5.57;5.07;;;;;;;;;;5054003;28;20100;-27
2022/06/05 10:34:46;;;;;;;6.13;4.63;;;;;;;;;;5056029;28;20047;-27
2022/06/05 10:37:18;;;;;;;6.93;5.38;;;;;;;;;;5057727;28;20051;-27
2022/06/05 10:39:44;;;;;;;7.38;5.07;;;;;;;;;;5055750;28;20426;-27
2022/06/05 10:42:23;;;;;;;5.15;4.60;;;;;;;;;;5062083;28;20074;-27
2022/06/05 10:44:49;;;;;;;6.22;4.30;;;;;;;;;;5061412;28;20482;-27
2022/06/05 10:47:20;;;;;;;6.28;4.40;;;;;;;;;;5074661;28;20048;-27
2022/06/05 10:50:07;;;;;;;5.60;4.68;;;;;;;;;;5060712;28;20076;-27
2022/06/05 10:52:52;;;;;;;6.18;4.47;;;;;;;;;;5042510;28;20061;-27
2022/06/05 10:55:18;;;;;;;5.00;4.50;;;;;;;;;;5054619;28;20510;-27
2022/06/05 10:57:53;;;;;;;4.90;4.40;;;;;;;;;;5055638;28;20175;-27
2022/06/05 11:00:21;;;;;;;5.85;4.45;;;;;;;;;;5062572;28;20052;-27
2022/06/05 11:03:03;;;;;;;5.47;3.83;;;;;;;;;;5058370;28;20055;-27
2022/06/05 11:05:48;;;;;;;7.07;4.78;;;;;;;;;;5064487;28;20040;-27
2022/06/05 11:08:25;;;;;;;4.40;3.95;;;;;;;;;;5074250;28;20393;-28
2022/06/05 11:13:45;;;;;;;5.47;4.25;;;;;;;;;;5072412;28;20118;-27
2022/06/05 11:16:17;;;;;;;4.30;3.90;;;;;;;;;;5056130;28;20048;-27
2022/06/05 11:18:46;;;;;;;5.68;3.80;;;;;;;;;;5055644;28;20044;-27
2022/06/05 11:21:17;;;;;;;4.10;3.80;;;;;;;;;;5059636;28;20041;-27
2022/06/05 11:23:44;;;;;;;3.97;3.50;;;;;;;;;;5058409;28;20039;-27
2022/06/05 11:26:13;;;;;;;6.25;4.13;;;;;;;;;;5061061;28;20059;-27
2022/06/05 11:28:58;;;;;;;4.90;4.10;;;;;;;;;;5057150;28;20044;-27
2022/06/05 11:31:43;;;;;;;6.03;3.78;;;;;;;;;;5070125;28;20052;-27
2022/06/05 11:34:28;;;;;;;7.13;4.15;;;;;;;;;;5074671;28;20142;-27
2022/06/05 11:36:55;;;;;;;9.88;4.47;;;;;;;;;;5062496;28;20076;-27
2022/06/05 11:39:39;;;;;;;8.05;3.70;;;;;;;;;;5077233;28;20040;-27
2022/06/05 11:42:05;;;;;;;5.97;3.67;;;;;;;;;;5077225;28;20055;-27
2022/06/05 11:44:46;;;;;;;7.85;4.53;;;;;;;;;;5075658;28;20127;-27
2022/06/05 11:47:31;;;;;;;7.07;4.30;;;;;;;;;;5057554;28;20040;-27
2022/06/05 11:50:15;;;;;;;6.97;5.22;;;;;;;;;;5057691;28;20496;-27
2022/06/05 11:52:46;;;;;;;6.25;4.05;;;;;;;;;;5056947;28;20075;-27
2022/06/05 11:55:12;;;;;;;9.52;4.05;;;;;;;;;;5056880;28;20045;-27
2022/06/05 11:57:59;;;;;;;7.15;4.30;;;;;;;;;;5057656;28;20700;-27
2022/06/05 12:00:35;;;;;;;6.68;3.65;;;;;;;;;;5066126;28;20489;-27
2022/06/05 12:03:20;;;;;;;5.22;3.95;;;;;;;;;;5058775;28;20033;-28
2022/06/05 12:05:46;;;;;;;9.50;4.35;;;;;;;;;;5074009;28;20063;-27
2022/06/05 12:08:15;;;;;;;7.75;4.43;;;;;;;;;;5076754;28;20049;-28
2022/06/05 12:11:00;;;;;;;5.47;4.20;;;;;;;;;;5063026;28;20130;-27
2022/06/05 12:13:32;;;;;;;7.97;4.13;;;;;;;;;;5059696;28;20052;-28
2022/06/05 12:16:02;;;;;;;4.93;3.90;;;;;;;;;;5063570;28;20087;-27
2022/06/05 12:18:36;;;;;;;4.70;3.80;;;;;;;;;;5068582;28;20127;-27
2022/06/05 12:21:06;;;;;;;9.38;3.50;;;;;;;;;;5063044;28;20037;-27
2022/06/05 12:23:34;;;;;;;5.00;3.35;;;;;;;;;;5057099;28;20491;-27
2022/06/05 12:26:02;;;;;;;4.57;3.70;;;;;;;;;;5058754;28;20048;-27
2022/06/05 12:28:31;;;;;;;5.60;3.53;;;;;;;;;;5065624;28;20044;-27
2022/06/05 12:31:03;;;;;;;4.93;3.35;;;;;;;;;;5064056;28;20046;-29
2022/06/05 12:33:37;;;;;;;3.67;3.28;;;;;;;;;;5055738;28;20120;-27
2022/06/05 12:36:26;;;;;;;5.13;3.83;;;;;;;;;;5055837;28;20052;-27
2022/06/05 12:39:06;;;;;;;7.00;3.70;;;;;;;;;;5075909;28;20131;-27
2022/06/05 12:42:02;;;;;;;6.18;3.38;;;;;;;;;;5076796;28;20051;-27
2022/06/05 12:44:30;;;;;;;4.68;3.50;;;;;;;;;;5049893;28;20068;-27
2022/06/05 12:47:05;;;;;;;7.20;3.55;;;;;;;;;;5056825;28;20552;-27
2022/06/05 12:49:46;;;;;;;7.90;4.07;;;;;;;;;;5055983;28;20495;-27
2022/06/05 12:52:23;;;;;;;4.40;3.72;;;;;;;;;;5055906;28;20482;-28
2022/06/05 12:55:08;;;;;;;5.15;3.60;;;;;;;;;;5054198;28;20044;-27
2022/06/05 12:57:39;;;;;;;6.95;3.70;;;;;;;;;;5067437;28;20037;-27
2022/06/05 13:00:21;;;;;;;3.80;3.17;;;;;;;;;;5055860;28;20498;-27
2022/06/05 13:03:00;;;;;;;6.28;3.50;;;;;;;;;;5056013;28;20084;-27
2022/06/05 13:05:32;;;;;;;7.93;4.03;;;;;;;;;;5054762;28;20433;-27
2022/06/05 13:08:02;;;;;;;4.70;3.47;;;;;;;;;;5056169;28;20091;-27
2022/06/05 13:10:40;;;;;;;9.02;3.67;;;;;;;;;;5057918;28;20044;-27
2022/06/05 13:13:12;;;;;;;5.07;3.65;;;;;;;;;;5055563;28;20049;-27
2022/06/05 13:15:48;;;;;;;4.47;3.45;;;;;;;;;;5054108;28;20091;-27
2022/06/05 13:18:32;;;;;;;4.75;3.40;;;;;;;;;;5055519;28;20045;-27
2022/06/05 13:21:20;;;;;;;4.10;3.70;;;;;;;;;;5058389;28;20487;-27
2022/06/05 13:23:55;;;;;;;3.83;3.22;;;;;;;;;;5055409;28;20052;-27
2022/06/05 13:26:33;;;;;;;7.47;4.00;;;;;;;;;;5055288;28;20398;-28
2022/06/05 13:29:11;;;;;;;6.43;3.40;;;;;;;;;;5055308;28;20049;-27
2022/06/05 13:32:02;;;;;;;4.20;3.45;;;;;;;;;;5055664;28;20109;-27
2022/06/05 13:34:30;;;;;;;5.93;3.67;;;;;;;;;;5053753;28;20182;-27
2022/06/05 13:37:22;;;;;;;11.05;4.38;;;;;;;;;;5055386;28;20045;-27
2022/06/05 13:39:49;;;;;;;;;;;;;;;;;;5067735;28;20059;-27
2022/06/05 13:42:16;;;;;;;4.50;3.38;;;;;;;;;;5063389;28;19924;-27
2022/06/05 13:44:43;;;;;;;5.75;3.85;;;;;;;;;;5065422;28;20044;-27
2022/06/05 13:47:39;;;;;;;7.00;3.90;;;;;;;;;;5074287;28;20051;-27
2022/06/05 13:50:23;;;;;;;9.25;4.10;;;;;;;;;;5050206;28;20056;-27
2022/06/05 13:53:00;;;;;;;5.35;3.30;;;;;;;;;;5055407;28;20095;-28
2022/06/05 13:55:28;;;;;;;4.45;3.47;;;;;;;;;;5055313;28;20079;-27
2022/06/05 13:58:13;;;;;;;3.65;3.35;;;;;;;;;;5054937;28;20049;-27
2022/06/05 14:00:54;;;;;;;5.78;4.07;;;;;;;;;;5054628;28;20128;-29
2022/06/05 14:03:38;;;;;;;5.03;3.63;;;;;;;;;;5056367;28;20143;-27
2022/06/05 14:06:07;;;;;;;5.22;3.42;;;;;;;;;;5053150;28;20048;-27
2022/06/05 14:08:37;;;;;;;4.95;2.92;;;;;;;;;;5052915;28;20443;-27
2022/06/05 14:11:07;;;;;;;6.03;3.25;;;;;;;;;;5054397;28;20049;-27
2022/06/05 14:13:44;;;;;;;3.50;3.10;;;;;;;;;;5054247;28;20048;-27
2022/06/05 14:16:11;;;;;;;4.90;3.20;;;;;;;;;;5054470;28;20048;-27
2022/06/05 14:18:39;;;;;;;3.95;2.55;;;;;;;;;;5054269;28;20049;-27
2022/06/05 14:21:06;;;;;;;5.47;2.88;;;;;;;;;;5054366;28;20045;-27
2022/06/05 14:23:33;;;;;;;5.53;4.22;;;;;;;;;;5052625;28;20119;-27
2022/06/05 14:26:00;;;;;;;11.88;5.18;;;;;;;;;;5057874;28;20070;-27
2022/06/05 14:28:34;;;;;;;6.05;3.50;;;;;;;;;;5064410;28;20052;-27
2022/06/05 14:31:03;;;;;;;5.70;2.90;;;;;;;;;;5053935;28;20048;-27
2022/06/05 14:33:31;;;;;;;3.33;3.00;;;;;;;;;;5053366;28;20048;-27
2022/06/05 14:35:57;;;;;;;6.53;3.38;;;;;;;;;;5054805;28;20437;-27
2022/06/05 14:38:23;;;;;;;5.10;3.13;;;;;;;;;;5036424;28;20060;-27
2022/06/05 14:40:52;;;;;;;8.77;3.17;;;;;;;;;;5054423;28;20116;-27
2022/06/05 14:43:38;;;;;;;3.40;3.10;;;;;;;;;;5053557;28;20525;-26
2022/06/05 14:46:31;;;;;;;3.67;2.85;;;;;;;;;;5053006;28;20403;-27
2022/06/05 14:49:16;;;;;;;3.17;2.88;;;;;;;;;;5031523;28;20060;-28
2022/06/05 14:51:46;;;;;;;6.63;3.30;;;;;;;;;;5056127;28;20085;-27
2022/06/05 14:54:17;;;;;;;4.95;3.08;;;;;;;;;;5053713;28;20048;-27
2022/06/05 14:59:37;;;;;;;5.70;3.00;;;;;;;;;;5054798;28;20053;-27
2022/06/05 15:02:03;;;;;;;3.53;3.22;;;;;;;;;;5066796;28;20044;-27
2022/06/05 15:04:41;;;;;;;4.53;3.20;;;;;;;;;;5073659;28;20040;-27
2022/06/05 15:07:11;;;;;;;3.33;2.92;;;;;;;;;;5073647;28;20413;-27
2022/06/05 15:09:43;;;;;;;6.20;2.83;;;;;;;;;;5073550;28;20095;-28